CheckWX is a tool to help pilots better visualize weather data.  It is not intended as a substitute for an official pre-flight weather briefing.

11:28:58 UTC

KMSY TAF
Louis Armstrong New Orleans International Airport
New Orleans, Louisiana, USA
KMSY 060520Z 0606/0712 28003KT P6SM FEW030 FEW100 BKN250 FM061100 VRB03KT P6SM VCTS SCT015CB BKN050 FM061700 26009KT 5SM -SHRA VCTS SCT025CB OVC050 FM062100 23009KT P6SM SHRA VCTS SCT030CB OVC080 FM070000 26007KT P6SM SCT025 OVC080

Jul-6@
06:00 UTC

Jul-6 @ 06:00 UTC

Jul-6@
11:00 UTC

Jul-6 @ 11:00 UTC

TAF KMSY 060520Z 0606/0712 28003KT P6SM FEW030 FEW100 BKN250

Expired

Wind
  • 280° at 3 KTS
Cloud Levels
  • Few at 3,000' AGL
  • Few at 10,000' AGL
  • Broken at 25,000' AGL

Jul-6@
11:00 UTC

Jul-6 @ 11:00 UTC

Jul-6@
17:00 UTC

Jul-6 @ 17:00 UTC

FM061100 VRB03KT P6SM VCTS SCT015CB BKN050

Expired

Wind
  • Variable at 3 KTS
Conditions
Area Thunderstorm
Cloud Levels
  • Scattered at 1,500' AGL
  • Broken at 5,000' AGL

Jul-6@
17:00 UTC

Jul-6 @ 17:00 UTC

Jul-6@
21:00 UTC

Jul-6 @ 21:00 UTC

FM061700 26009KT 5SM -SHRA VCTS SCT025CB OVC050

Expired

Wind
  • 260° at 9 KTS
Conditions
Light Showers, Rain, Area Thunderstorm
Cloud Levels
  • Scattered at 2,500' AGL
  • Overcast at 5,000' AGL

Jul-6@
21:00 UTC

Jul-6 @ 21:00 UTC

Jul-7@
00:00 UTC

Jul-7 @ 00:00 UTC

FM062100 23009KT P6SM SHRA VCTS SCT030CB OVC080

Expired

Wind
  • 230° at 9 KTS
Conditions
Showers, Rain, Area Thunderstorm
Cloud Levels
  • Scattered at 3,000' AGL
  • Overcast at 8,000' AGL

Jul-7@
00:00 UTC

Jul-7 @ 00:00 UTC

Jul-7@
12:00 UTC

Jul-7 @ 12:00 UTC

FM070000 26007KT P6SM SCT025 OVC080

From

From Standard forecast or significant change

Wind
  • 260° at 7 KTS
Cloud Levels
  • Scattered at 2,500' AGL
  • Overcast at 8,000' AGL